Edgewater Terrace, Illinois
Current Conditions -  °F | °C
As of 6:15 PM on Wednesday 28 Jan 2015 (Local Time) from KC75 Reporting Station
Clear Clear  
Wind Chill: 26°   Ceiling: Unl
Heat Index: 35°   Visibility: 10mi
Dew Point: 29°   Wind: 13mph
Humidity: 79%   Direction: 150°SSE
Pressure: 29.91"   Gusts: 22mph
Location:  40.915°N, 89.5303°W
Report Text: KC75 290015Z AUTO 15011G19KT 10SM CLR 02/M02 A2991 RMK AO2 T00151017
Loading
Personal Weather Stations






























Interactive Weather Map New forecast layout! Learn more

10-Day Weather Forecast

Advertisements
Track Severe Weather on mobile